sensor_id;sensor_type;location;lat;lon;timestamp;temperature;humidity
15481;DHT22;7842;50.904;6.670;2023-04-15T00:00:13;7.80;99.90
15481;DHT22;7842;50.904;6.670;2023-04-15T00:02:40;7.80;99.90
15481;DHT22;7842;50.904;6.670;2023-04-15T00:05:06;7.80;99.90
15481;DHT22;7842;50.904;6.670;2023-04-15T00:07:32;7.80;99.90
15481;DHT22;7842;50.904;6.670;2023-04-15T00:09:58;8.00;99.90
15481;DHT22;7842;50.904;6.670;2023-04-15T00:12:24;7.80;99.90
15481;DHT22;7842;50.904;6.670;2023-04-15T00:14:53;7.90;99.90
15481;DHT22;7842;50.904;6.670;2023-04-15T00:17:23;7.70;99.90
15481;DHT22;7842;50.904;6.670;2023-04-15T00:19:49;7.90;99.90
15481;DHT22;7842;50.904;6.670;2023-04-15T00:22:14;10.20;99.90
15481;DHT22;7842;50.904;6.670;2023-04-15T00:24:40;7.30;99.90
15481;DHT22;7842;50.904;6.670;2023-04-15T00:27:07;7.30;99.90
15481;DHT22;7842;50.904;6.670;2023-04-15T00:29:32;8.10;99.90
15481;DHT22;7842;50.904;6.670;2023-04-15T00:31:58;7.30;99.90
15481;DHT22;7842;50.904;6.670;2023-04-15T00:34:24;7.00;99.90
15481;DHT22;7842;50.904;6.670;2023-04-15T00:36:50;8.00;99.90
15481;DHT22;7842;50.904;6.670;2023-04-15T00:39:16;6.90;99.90
15481;DHT22;7842;50.904;6.670;2023-04-15T00:41:43;6.90;99.90
15481;DHT22;7842;50.904;6.670;2023-04-15T00:44:09;9.40;99.90
15481;DHT22;7842;50.904;6.670;2023-04-15T00:46:36;7.40;99.90
15481;DHT22;7842;50.904;6.670;2023-04-15T00:49:08;6.90;99.90
15481;DHT22;7842;50.904;6.670;2023-04-15T00:51:37;6.60;99.90
15481;DHT22;7842;50.904;6.670;2023-04-15T00:54:03;6.70;99.90
15481;DHT22;7842;50.904;6.670;2023-04-15T00:56:29;6.80;99.90
15481;DHT22;7842;50.904;6.670;2023-04-15T00:58:56;9.50;99.90
15481;DHT22;7842;50.904;6.670;2023-04-15T01:01:24;6.50;99.90
15481;DHT22;7842;50.904;6.670;2023-04-15T01:03:50;6.40;99.90
15481;DHT22;7842;50.904;6.670;2023-04-15T01:06:17;9.10;99.90
15481;DHT22;7842;50.904;6.670;2023-04-15T01:08:43;6.20;99.90
15481;DHT22;7842;50.904;6.670;2023-04-15T01:11:09;6.20;99.90
15481;DHT22;7842;50.904;6.670;2023-04-15T01:13:39;6.20;99.90
15481;DHT22;7842;50.904;6.670;2023-04-15T01:16:06;6.40;99.90
15481;DHT22;7842;50.904;6.670;2023-04-15T01:18:33;6.40;99.90
15481;DHT22;7842;50.904;6.670;2023-04-15T01:21:00;6.50;99.90
15481;DHT22;7842;50.904;6.670;2023-04-15T01:23:28;9.80;99.90
15481;DHT22;7842;50.904;6.670;2023-04-15T01:25:55;9.30;99.90
15481;DHT22;7842;50.904;6.670;2023-04-15T01:28:21;6.30;99.90
15481;DHT22;7842;50.904;6.670;2023-04-15T01:30:46;7.00;99.90
15481;DHT22;7842;50.904;6.670;2023-04-15T01:33:13;6.50;99.90
15481;DHT22;7842;50.904;6.670;2023-04-15T01:35:38;6.50;99.90
15481;DHT22;7842;50.904;6.670;2023-04-15T01:38:06;8.90;99.90
15481;DHT22;7842;50.904;6.670;2023-04-15T01:40:32;6.50;99.90
15481;DHT22;7842;50.904;6.670;2023-04-15T01:42:58;6.30;99.90
15481;DHT22;7842;50.904;6.670;2023-04-15T01:45:24;6.20;99.90
15481;DHT22;7842;50.904;6.670;2023-04-15T01:47:50;6.20;99.90
15481;DHT22;7842;50.904;6.670;2023-04-15T01:50:15;7.30;99.90
15481;DHT22;7842;50.904;6.670;2023-04-15T01:52:41;5.90;99.90
15481;DHT22;7842;50.904;6.670;2023-04-15T01:55:07;5.90;99.90
15481;DHT22;7842;50.904;6.670;2023-04-15T01:57:34;5.90;99.90
15481;DHT22;7842;50.904;6.670;2023-04-15T01:59:59;6.00;99.90
15481;DHT22;7842;50.904;6.670;2023-04-15T02:02:25;5.90;99.90
15481;DHT22;7842;50.904;6.670;2023-04-15T02:04:51;7.80;99.90
15481;DHT22;7842;50.904;6.670;2023-04-15T02:07:17;5.70;99.90
15481;DHT22;7842;50.904;6.670;2023-04-15T02:09:44;5.80;99.90
15481;DHT22;7842;50.904;6.670;2023-04-15T02:12:10;5.90;99.90
15481;DHT22;7842;50.904;6.670;2023-04-15T02:14:36;6.10;99.90
15481;DHT22;7842;50.904;6.670;2023-04-15T02:17:02;8.70;99.90
15481;DHT22;7842;50.904;6.670;2023-04-15T02:19:32;6.20;99.90
15481;DHT22;7842;50.904;6.670;2023-04-15T02:21:58;6.60;99.90
15481;DHT22;7842;50.904;6.670;2023-04-15T02:24:25;8.80;99.90
15481;DHT22;7842;50.904;6.670;2023-04-15T02:26:50;6.10;99.90
15481;DHT22;7842;50.904;6.670;2023-04-15T02:29:16;8.00;99.90
15481;DHT22;7842;50.904;6.670;2023-04-15T02:31:41;6.00;99.90
15481;DHT22;7842;50.904;6.670;2023-04-15T02:34:08;8.50;99.90
15481;DHT22;7842;50.904;6.670;2023-04-15T02:36:33;7.10;99.90
15481;DHT22;7842;50.904;6.670;2023-04-15T02:38:59;8.80;99.90
15481;DHT22;7842;50.904;6.670;2023-04-15T02:41:25;5.80;99.90
15481;DHT22;7842;50.904;6.670;2023-04-15T02:43:53;6.80;99.90
15481;DHT22;7842;50.904;6.670;2023-04-15T02:46:18;6.60;99.90
15481;DHT22;7842;50.904;6.670;2023-04-15T02:48:44;5.70;99.90
15481;DHT22;7842;50.904;6.670;2023-04-15T02:51:20;5.50;99.90
15481;DHT22;7842;50.904;6.670;2023-04-15T02:53:47;5.50;99.90
15481;DHT22;7842;50.904;6.670;2023-04-15T02:56:14;5.50;99.90
15481;DHT22;7842;50.904;6.670;2023-04-15T02:58:40;5.40;99.90
15481;DHT22;7842;50.904;6.670;2023-04-15T03:01:06;5.30;99.90
15481;DHT22;7842;50.904;6.670;2023-04-15T03:03:33;5.30;99.90
15481;DHT22;7842;50.904;6.670;2023-04-15T03:05:59;5.30;99.90
15481;DHT22;7842;50.904;6.670;2023-04-15T03:08:25;7.60;99.90
15481;DHT22;7842;50.904;6.670;2023-04-15T03:10:51;7.20;99.90
15481;DHT22;7842;50.904;6.670;2023-04-15T03:13:17;5.50;99.90
15481;DHT22;7842;50.904;6.670;2023-04-15T03:15:45;5.60;99.90
15481;DHT22;7842;50.904;6.670;2023-04-15T03:18:11;7.20;99.90
15481;DHT22;7842;50.904;6.670;2023-04-15T03:20:36;5.50;99.90
15481;DHT22;7842;50.904;6.670;2023-04-15T03:23:02;5.20;99.90
15481;DHT22;7842;50.904;6.670;2023-04-15T03:25:28;6.00;99.90
15481;DHT22;7842;50.904;6.670;2023-04-15T03:27:53;6.20;99.90
15481;DHT22;7842;50.904;6.670;2023-04-15T03:30:21;5.10;99.90
15481;DHT22;7842;50.904;6.670;2023-04-15T03:32:47;5.00;99.90
15481;DHT22;7842;50.904;6.670;2023-04-15T03:35:12;4.60;99.90
15481;DHT22;7842;50.904;6.670;2023-04-15T03:37:38;6.10;99.90
15481;DHT22;7842;50.904;6.670;2023-04-15T03:40:04;4.30;99.90
15481;DHT22;7842;50.904;6.670;2023-04-15T03:42:30;5.00;99.90
15481;DHT22;7842;50.904;6.670;2023-04-15T03:44:55;6.20;99.90
15481;DHT22;7842;50.904;6.670;2023-04-15T03:47:21;5.10;99.90
15481;DHT22;7842;50.904;6.670;2023-04-15T03:49:47;5.00;99.90
15481;DHT22;7842;50.904;6.670;2023-04-15T03:52:12;5.00;99.90
15481;DHT22;7842;50.904;6.670;2023-04-15T03:54:38;4.90;99.90
15481;DHT22;7842;50.904;6.670;2023-04-15T03:57:04;4.90;99.90
15481;DHT22;7842;50.904;6.670;2023-04-15T03:59:29;5.90;99.90
15481;DHT22;7842;50.904;6.670;2023-04-15T04:01:55;4.30;99.90
15481;DHT22;7842;50.904;6.670;2023-04-15T04:04:20;4.70;99.90
15481;DHT22;7842;50.904;6.670;2023-04-15T04:06:46;6.00;99.90
15481;DHT22;7842;50.904;6.670;2023-04-15T04:09:12;4.80;99.90
15481;DHT22;7842;50.904;6.670;2023-04-15T04:11:37;5.10;99.90
15481;DHT22;7842;50.904;6.670;2023-04-15T04:14:03;5.20;99.90
15481;DHT22;7842;50.904;6.670;2023-04-15T04:16:29;4.80;99.90
15481;DHT22;7842;50.904;6.670;2023-04-15T04:18:54;4.70;99.90
15481;DHT22;7842;50.904;6.670;2023-04-15T04:21:20;5.70;99.90
15481;DHT22;7842;50.904;6.670;2023-04-15T04:23:46;4.70;99.90
15481;DHT22;7842;50.904;6.670;2023-04-15T04:26:12;7.80;99.90
15481;DHT22;7842;50.904;6.670;2023-04-15T04:28:37;7.70;99.90
15481;DHT22;7842;50.904;6.670;2023-04-15T04:31:05;8.10;99.90
15481;DHT22;7842;50.904;6.670;2023-04-15T04:33:32;6.20;99.90
15481;DHT22;7842;50.904;6.670;2023-04-15T04:35:57;5.10;99.90
15481;DHT22;7842;50.904;6.670;2023-04-15T04:38:23;4.80;99.90
15481;DHT22;7842;50.904;6.670;2023-04-15T04:40:49;4.70;99.90
15481;DHT22;7842;50.904;6.670;2023-04-15T04:43:14;4.90;99.90
15481;DHT22;7842;50.904;6.670;2023-04-15T04:45:40;7.20;99.90
15481;DHT22;7842;50.904;6.670;2023-04-15T04:48:06;4.90;99.90
15481;DHT22;7842;50.904;6.670;2023-04-15T04:50:33;4.70;99.90
15481;DHT22;7842;50.904;6.670;2023-04-15T04:53:00;4.90;99.90
15481;DHT22;7842;50.904;6.670;2023-04-15T04:55:26;5.80;99.90
15481;DHT22;7842;50.904;6.670;2023-04-15T04:57:52;4.80;99.90
15481;DHT22;7842;50.904;6.670;2023-04-15T05:00:17;4.60;99.90
15481;DHT22;7842;50.904;6.670;2023-04-15T05:02:43;5.40;99.90
15481;DHT22;7842;50.904;6.670;2023-04-15T05:05:10;5.90;99.90
15481;DHT22;7842;50.904;6.670;2023-04-15T05:07:36;7.10;99.90
15481;DHT22;7842;50.904;6.670;2023-04-15T05:10:03;4.60;99.90
15481;DHT22;7842;50.904;6.670;2023-04-15T05:12:28;4.80;99.90
15481;DHT22;7842;50.904;6.670;2023-04-15T05:24:41;6.80;99.90
15481;DHT22;7842;50.904;6.670;2023-04-15T05:27:06;6.60;99.90
15481;DHT22;7842;50.904;6.670;2023-04-15T05:29:33;6.00;99.90
15481;DHT22;7842;50.904;6.670;2023-04-15T05:31:59;6.30;99.90
15481;DHT22;7842;50.904;6.670;2023-04-15T05:34:24;9.00;99.90
15481;DHT22;7842;50.904;6.670;2023-04-15T05:36:50;9.10;99.90
15481;DHT22;7842;50.904;6.670;2023-04-15T05:39:17;8.80;99.90
15481;DHT22;7842;50.904;6.670;2023-04-15T05:41:42;7.00;99.90
15481;DHT22;7842;50.904;6.670;2023-04-15T05:44:08;10.40;99.90
15481;DHT22;7842;50.904;6.670;2023-04-15T05:46:33;10.70;99.90
15481;DHT22;7842;50.904;6.670;2023-04-15T05:48:59;10.10;99.90
15481;DHT22;7842;50.904;6.670;2023-04-15T05:51:25;10.50;99.90
15481;DHT22;7842;50.904;6.670;2023-04-15T05:53:51;10.20;99.90
15481;DHT22;7842;50.904;6.670;2023-04-15T05:56:17;9.40;99.90
15481;DHT22;7842;50.904;6.670;2023-04-15T05:58:43;10.00;99.90
15481;DHT22;7842;50.904;6.670;2023-04-15T06:01:10;8.70;99.90
15481;DHT22;7842;50.904;6.670;2023-04-15T06:03:36;11.20;99.90
15481;DHT22;7842;50.904;6.670;2023-04-15T06:06:03;8.70;99.90
15481;DHT22;7842;50.904;6.670;2023-04-15T06:08:28;8.40;99.90
15481;DHT22;7842;50.904;6.670;2023-04-15T06:10:54;10.50;99.90
15481;DHT22;7842;50.904;6.670;2023-04-15T06:13:20;9.00;99.90
15481;DHT22;7842;50.904;6.670;2023-04-15T06:15:45;10.80;99.90
15481;DHT22;7842;50.904;6.670;2023-04-15T06:18:11;9.90;99.90
15481;DHT22;7842;50.904;6.670;2023-04-15T06:20:37;12.20;99.90
15481;DHT22;7842;50.904;6.670;2023-04-15T06:23:03;10.20;99.90
15481;DHT22;7842;50.904;6.670;2023-04-15T06:25:31;10.60;99.90
15481;DHT22;7842;50.904;6.670;2023-04-15T06:27:57;10.20;99.90
15481;DHT22;7842;50.904;6.670;2023-04-15T06:30:22;11.80;99.90
15481;DHT22;7842;50.904;6.670;2023-04-15T06:32:48;11.00;99.90
15481;DHT22;7842;50.904;6.670;2023-04-15T06:35:14;11.00;99.90
15481;DHT22;7842;50.904;6.670;2023-04-15T06:37:40;9.70;99.90
15481;DHT22;7842;50.904;6.670;2023-04-15T06:40:06;9.90;99.90
15481;DHT22;7842;50.904;6.670;2023-04-15T06:42:32;9.80;99.90
15481;DHT22;7842;50.904;6.670;2023-04-15T06:44:58;9.80;99.90
15481;DHT22;7842;50.904;6.670;2023-04-15T06:47:24;9.70;99.90
15481;DHT22;7842;50.904;6.670;2023-04-15T06:49:49;9.10;99.90
15481;DHT22;7842;50.904;6.670;2023-04-15T06:52:15;11.00;99.90
15481;DHT22;7842;50.904;6.670;2023-04-15T06:54:41;10.80;99.90
15481;DHT22;7842;50.904;6.670;2023-04-15T06:57:07;9.50;99.90
15481;DHT22;7842;50.904;6.670;2023-04-15T06:59:34;9.30;99.90
15481;DHT22;7842;50.904;6.670;2023-04-15T07:01:59;8.50;99.90
15481;DHT22;7842;50.904;6.670;2023-04-15T07:04:25;9.10;99.90
15481;DHT22;7842;50.904;6.670;2023-04-15T07:06:52;8.50;99.90
15481;DHT22;7842;50.904;6.670;2023-04-15T07:09:18;8.60;99.90
15481;DHT22;7842;50.904;6.670;2023-04-15T07:11:44;9.00;99.90
15481;DHT22;7842;50.904;6.670;2023-04-15T07:14:09;8.60;99.90
15481;DHT22;7842;50.904;6.670;2023-04-15T07:16:35;8.90;99.90
15481;DHT22;7842;50.904;6.670;2023-04-15T07:19:01;10.60;99.90
15481;DHT22;7842;50.904;6.670;2023-04-15T07:21:26;11.00;99.90
15481;DHT22;7842;50.904;6.670;2023-04-15T07:23:52;9.90;99.90
15481;DHT22;7842;50.904;6.670;2023-04-15T07:26:18;9.50;99.90
15481;DHT22;7842;50.904;6.670;2023-04-15T07:28:43;9.60;99.90
15481;DHT22;7842;50.904;6.670;2023-04-15T07:31:10;9.70;99.90
15481;DHT22;7842;50.904;6.670;2023-04-15T07:33:36;9.30;99.90
15481;DHT22;7842;50.904;6.670;2023-04-15T07:36:02;9.30;99.90
15481;DHT22;7842;50.904;6.670;2023-04-15T07:38:27;9.40;99.90
15481;DHT22;7842;50.904;6.670;2023-04-15T07:40:54;11.00;99.90
15481;DHT22;7842;50.904;6.670;2023-04-15T07:43:19;9.60;99.90
15481;DHT22;7842;50.904;6.670;2023-04-15T07:45:46;9.80;99.90
15481;DHT22;7842;50.904;6.670;2023-04-15T07:48:11;10.20;99.90
15481;DHT22;7842;50.904;6.670;2023-04-15T07:50:37;10.90;99.90
15481;DHT22;7842;50.904;6.670;2023-04-15T07:53:03;10.60;99.90
15481;DHT22;7842;50.904;6.670;2023-04-15T07:55:29;10.80;99.90
15481;DHT22;7842;50.904;6.670;2023-04-15T07:57:55;10.80;99.90
15481;DHT22;7842;50.904;6.670;2023-04-15T08:00:21;11.80;99.90
15481;DHT22;7842;50.904;6.670;2023-04-15T08:02:48;11.00;99.90
15481;DHT22;7842;50.904;6.670;2023-04-15T08:05:14;11.00;99.90
15481;DHT22;7842;50.904;6.670;2023-04-15T08:07:40;11.40;99.90
15481;DHT22;7842;50.904;6.670;2023-04-15T08:10:06;11.40;99.90
15481;DHT22;7842;50.904;6.670;2023-04-15T08:12:32;11.40;99.90
15481;DHT22;7842;50.904;6.670;2023-04-15T08:14:58;12.10;99.90
15481;DHT22;7842;50.904;6.670;2023-04-15T08:17:24;12.20;99.90
15481;DHT22;7842;50.904;6.670;2023-04-15T08:19:49;11.20;99.90
15481;DHT22;7842;50.904;6.670;2023-04-15T08:22:16;11.90;99.90
15481;DHT22;7842;50.904;6.670;2023-04-15T08:24:42;12.80;99.90
15481;DHT22;7842;50.904;6.670;2023-04-15T08:27:07;12.50;99.90
15481;DHT22;7842;50.904;6.670;2023-04-15T08:29:33;12.50;99.90
15481;DHT22;7842;50.904;6.670;2023-04-15T08:32:00;12.20;99.90
15481;DHT22;7842;50.904;6.670;2023-04-15T08:34:28;12.50;99.90
15481;DHT22;7842;50.904;6.670;2023-04-15T08:36:55;12.80;99.90
15481;DHT22;7842;50.904;6.670;2023-04-15T08:39:20;13.10;99.90
15481;DHT22;7842;50.904;6.670;2023-04-15T08:44:13;12.60;99.90
15481;DHT22;7842;50.904;6.670;2023-04-15T08:46:40;12.60;99.90
15481;DHT22;7842;50.904;6.670;2023-04-15T08:49:09;12.80;99.90
15481;DHT22;7842;50.904;6.670;2023-04-15T08:51:40;12.10;99.90
15481;DHT22;7842;50.904;6.670;2023-04-15T08:54:07;12.20;99.90
15481;DHT22;7842;50.904;6.670;2023-04-15T09:01:26;12.20;99.90
15481;DHT22;7842;50.904;6.670;2023-04-15T09:03:52;12.30;99.90
15481;DHT22;7842;50.904;6.670;2023-04-15T09:06:23;12.30;99.90
15481;DHT22;7842;50.904;6.670;2023-04-15T09:08:51;12.30;99.90
15481;DHT22;7842;50.904;6.670;2023-04-15T09:11:17;12.50;99.90
15481;DHT22;7842;50.904;6.670;2023-04-15T09:13:44;12.50;99.90
15481;DHT22;7842;50.904;6.670;2023-04-15T09:30:59;12.40;99.90
15481;DHT22;7842;50.904;6.670;2023-04-15T09:48:23;12.80;99.90
15481;DHT22;7842;50.904;6.670;2023-04-15T09:50:52;12.70;99.90
15481;DHT22;7842;50.904;6.670;2023-04-15T09:58:27;13.30;99.90
15481;DHT22;7842;50.904;6.670;2023-04-15T10:03:33;13.40;99.90
15481;DHT22;7842;50.904;6.670;2023-04-15T10:16:11;12.90;99.90
15481;DHT22;7842;50.904;6.670;2023-04-15T10:26:02;13.40;99.90
15481;DHT22;7842;50.904;6.670;2023-04-15T10:28:28;13.40;99.90
15481;DHT22;7842;50.904;6.670;2023-04-15T10:30:57;13.40;99.90
15481;DHT22;7842;50.904;6.670;2023-04-15T10:33:24;13.60;99.90
15481;DHT22;7842;50.904;6.670;2023-04-15T10:35:52;13.40;99.90
15481;DHT22;7842;50.904;6.670;2023-04-15T10:38:37;13.40;99.90
15481;DHT22;7842;50.904;6.670;2023-04-15T10:48:32;13.90;99.90
15481;DHT22;7842;50.904;6.670;2023-04-15T10:50:59;13.50;99.90
15481;DHT22;7842;50.904;6.670;2023-04-15T10:53:27;13.40;99.90
15481;DHT22;7842;50.904;6.670;2023-04-15T10:55:54;13.30;99.90
15481;DHT22;7842;50.904;6.670;2023-04-15T10:58:23;12.90;99.90
15481;DHT22;7842;50.904;6.670;2023-04-15T11:09:07;13.10;99.90
15481;DHT22;7842;50.904;6.670;2023-04-15T11:12:08;13.20;99.90
15481;DHT22;7842;50.904;6.670;2023-04-15T11:14:39;13.30;99.90
15481;DHT22;7842;50.904;6.670;2023-04-15T11:17:05;13.10;99.90
15481;DHT22;7842;50.904;6.670;2023-04-15T11:19:37;13.40;99.90
15481;DHT22;7842;50.904;6.670;2023-04-15T11:27:02;13.40;99.90
15481;DHT22;7842;50.904;6.670;2023-04-15T11:49:30;13.30;99.90
15481;DHT22;7842;50.904;6.670;2023-04-15T12:14:25;13.10;99.90
15481;DHT22;7842;50.904;6.670;2023-04-15T12:19:41;13.00;99.90
15481;DHT22;7842;50.904;6.670;2023-04-15T12:34:41;13.10;99.90
15481;DHT22;7842;50.904;6.670;2023-04-15T12:39:46;12.90;99.90
15481;DHT22;7842;50.904;6.670;2023-04-15T12:42:14;12.90;99.90
15481;DHT22;7842;50.904;6.670;2023-04-15T12:44:40;13.80;99.90
15481;DHT22;7842;50.904;6.670;2023-04-15T13:26:10;12.70;99.90
15481;DHT22;7842;50.904;6.670;2023-04-15T13:28:35;12.50;99.90
15481;DHT22;7842;50.904;6.670;2023-04-15T13:38:19;12.20;99.90
15481;DHT22;7842;50.904;6.670;2023-04-15T13:40:45;12.10;99.90
15481;DHT22;7842;50.904;6.670;2023-04-15T13:45:38;12.30;99.90
15481;DHT22;7842;50.904;6.670;2023-04-15T13:50:31;12.50;99.90
15481;DHT22;7842;50.904;6.670;2023-04-15T13:52:57;12.20;99.90
15481;DHT22;7842;50.904;6.670;2023-04-15T13:55:22;12.20;99.90
15481;DHT22;7842;50.904;6.670;2023-04-15T13:57:48;12.20;99.90
15481;DHT22;7842;50.904;6.670;2023-04-15T14:05:07;12.20;99.90
15481;DHT22;7842;50.904;6.670;2023-04-15T14:19:43;12.00;99.90
15481;DHT22;7842;50.904;6.670;2023-04-15T14:27:02;11.90;99.90
15481;DHT22;7842;50.904;6.670;2023-04-15T14:31:53;11.90;99.90
15481;DHT22;7842;50.904;6.670;2023-04-15T14:39:15;12.00;99.90
15481;DHT22;7842;50.904;6.670;2023-04-15T14:41:41;12.00;99.90
15481;DHT22;7842;50.904;6.670;2023-04-15T14:44:07;12.00;99.90
15481;DHT22;7842;50.904;6.670;2023-04-15T15:03:36;12.30;99.90
15481;DHT22;7842;50.904;6.670;2023-04-15T15:06:01;12.30;99.90
15481;DHT22;7842;50.904;6.670;2023-04-15T15:08:28;12.10;99.90
15481;DHT22;7842;50.904;6.670;2023-04-15T15:10:54;12.10;99.90
15481;DHT22;7842;50.904;6.670;2023-04-15T15:13:22;12.00;99.90
15481;DHT22;7842;50.904;6.670;2023-04-15T15:15:47;12.30;99.90
15481;DHT22;7842;50.904;6.670;2023-04-15T15:18:17;12.00;99.90
15481;DHT22;7842;50.904;6.670;2023-04-15T15:33:05;12.00;99.90
15481;DHT22;7842;50.904;6.670;2023-04-15T15:35:31;12.00;99.90
15481;DHT22;7842;50.904;6.670;2023-04-15T15:37:58;11.90;99.90
15481;DHT22;7842;50.904;6.670;2023-04-15T15:40:25;12.70;99.90
15481;DHT22;7842;50.904;6.670;2023-04-15T15:42:51;11.80;99.90
15481;DHT22;7842;50.904;6.670;2023-04-15T15:52:35;12.00;99.90
15481;DHT22;7842;50.904;6.670;2023-04-15T15:55:01;12.00;99.90
15481;DHT22;7842;50.904;6.670;2023-04-15T15:57:26;11.90;99.90
15481;DHT22;7842;50.904;6.670;2023-04-15T15:59:52;11.90;99.90
15481;DHT22;7842;50.904;6.670;2023-04-15T16:02:18;11.90;99.90
15481;DHT22;7842;50.904;6.670;2023-04-15T16:04:43;11.90;99.90
15481;DHT22;7842;50.904;6.670;2023-04-15T16:07:10;11.80;99.90
15481;DHT22;7842;50.904;6.670;2023-04-15T16:09:40;12.60;99.90
15481;DHT22;7842;50.904;6.670;2023-04-15T16:12:07;11.90;99.90
15481;DHT22;7842;50.904;6.670;2023-04-15T16:14:35;12.30;99.90
15481;DHT22;7842;50.904;6.670;2023-04-15T16:17:01;11.90;99.90
15481;DHT22;7842;50.904;6.670;2023-04-15T16:19:29;11.90;99.90
15481;DHT22;7842;50.904;6.670;2023-04-15T16:21:55;11.90;99.90
15481;DHT22;7842;50.904;6.670;2023-04-15T16:24:21;12.50;99.90
15481;DHT22;7842;50.904;6.670;2023-04-15T16:26:46;11.80;99.90
15481;DHT22;7842;50.904;6.670;2023-04-15T16:29:12;11.60;99.90
15481;DHT22;7842;50.904;6.670;2023-04-15T16:31:37;11.70;99.90
15481;DHT22;7842;50.904;6.670;2023-04-15T16:34:05;12.30;99.90
15481;DHT22;7842;50.904;6.670;2023-04-15T16:36:32;11.70;99.90
15481;DHT22;7842;50.904;6.670;2023-04-15T16:38:58;11.70;99.90
15481;DHT22;7842;50.904;6.670;2023-04-15T16:41:23;11.60;99.90
15481;DHT22;7842;50.904;6.670;2023-04-15T16:43:49;11.70;99.90
15481;DHT22;7842;50.904;6.670;2023-04-15T16:46:15;11.40;99.90
15481;DHT22;7842;50.904;6.670;2023-04-15T16:48:40;11.60;99.90
15481;DHT22;7842;50.904;6.670;2023-04-15T17:54:34;10.80;99.90
15481;DHT22;7842;50.904;6.670;2023-04-15T18:31:21;10.50;99.90
15481;DHT22;7842;50.904;6.670;2023-04-15T18:41:05;10.30;99.90
15481;DHT22;7842;50.904;6.670;2023-04-15T19:03:06;10.00;99.90
15481;DHT22;7842;50.904;6.670;2023-04-15T20:11:34;8.90;99.90
15481;DHT22;7842;50.904;6.670;2023-04-15T20:16:28;8.80;99.90
15481;DHT22;7842;50.904;6.670;2023-04-15T20:18:54;8.80;99.90
15481;DHT22;7842;50.904;6.670;2023-04-15T20:21:20;8.80;99.90
15481;DHT22;7842;50.904;6.670;2023-04-15T20:23:46;8.80;99.90
15481;DHT22;7842;50.904;6.670;2023-04-15T20:26:11;8.80;99.90
15481;DHT22;7842;50.904;6.670;2023-04-15T20:31:03;8.80;99.90
15481;DHT22;7842;50.904;6.670;2023-04-15T20:33:31;8.80;99.90
15481;DHT22;7842;50.904;6.670;2023-04-15T20:35:57;8.80;99.90
15481;DHT22;7842;50.904;6.670;2023-04-15T20:38:24;8.80;99.90
15481;DHT22;7842;50.904;6.670;2023-04-15T20:40:49;8.70;99.90
15481;DHT22;7842;50.904;6.670;2023-04-15T20:43:15;8.70;99.90
15481;DHT22;7842;50.904;6.670;2023-04-15T20:45:41;8.70;99.90
15481;DHT22;7842;50.904;6.670;2023-04-15T20:48:06;8.70;99.90
15481;DHT22;7842;50.904;6.670;2023-04-15T20:50:32;9.90;99.90
15481;DHT22;7842;50.904;6.670;2023-04-15T20:52:58;8.70;99.90
15481;DHT22;7842;50.904;6.670;2023-04-15T20:55:24;8.70;99.90
15481;DHT22;7842;50.904;6.670;2023-04-15T20:57:49;8.60;99.90
15481;DHT22;7842;50.904;6.670;2023-04-15T21:00:15;8.60;99.90
15481;DHT22;7842;50.904;6.670;2023-04-15T21:05:07;8.60;99.90
15481;DHT22;7842;50.904;6.670;2023-04-15T21:07:32;8.50;99.90
15481;DHT22;7842;50.904;6.670;2023-04-15T21:09:58;8.60;99.90
15481;DHT22;7842;50.904;6.670;2023-04-15T21:12:24;8.60;99.90
15481;DHT22;7842;50.904;6.670;2023-04-15T21:14:52;8.60;99.90
15481;DHT22;7842;50.904;6.670;2023-04-15T21:17:20;8.50;99.90
15481;DHT22;7842;50.904;6.670;2023-04-15T21:19:46;8.50;99.90
15481;DHT22;7842;50.904;6.670;2023-04-15T21:24:40;8.60;99.90
15481;DHT22;7842;50.904;6.670;2023-04-15T21:34:24;8.60;99.90
15481;DHT22;7842;50.904;6.670;2023-04-15T21:58:55;8.30;99.90
15481;DHT22;7842;50.904;6.670;2023-04-15T22:01:24;8.30;99.90
15481;DHT22;7842;50.904;6.670;2023-04-15T22:03:53;8.30;99.90
15481;DHT22;7842;50.904;6.670;2023-04-15T22:06:19;8.30;99.90
15481;DHT22;7842;50.904;6.670;2023-04-15T22:08:45;8.30;99.90
15481;DHT22;7842;50.904;6.670;2023-04-15T22:11:20;8.30;99.90
15481;DHT22;7842;50.904;6.670;2023-04-15T22:13:51;8.40;99.90
15481;DHT22;7842;50.904;6.670;2023-04-15T22:16:17;8.30;99.90
15481;DHT22;7842;50.904;6.670;2023-04-15T22:28:30;8.30;99.90
15481;DHT22;7842;50.904;6.670;2023-04-15T22:30:55;8.30;99.90
15481;DHT22;7842;50.904;6.670;2023-04-15T22:35:48;8.30;99.90
15481;DHT22;7842;50.904;6.670;2023-04-15T22:38:14;8.30;99.90
15481;DHT22;7842;50.904;6.670;2023-04-15T22:40:39;8.30;99.90
15481;DHT22;7842;50.904;6.670;2023-04-15T22:43:05;8.30;99.90
15481;DHT22;7842;50.904;6.670;2023-04-15T22:45:30;8.30;99.90
15481;DHT22;7842;50.904;6.670;2023-04-15T22:47:59;8.40;99.90
15481;DHT22;7842;50.904;6.670;2023-04-15T22:50:29;8.30;99.90
15481;DHT22;7842;50.904;6.670;2023-04-15T22:52:57;8.20;99.90
15481;DHT22;7842;50.904;6.670;2023-04-15T22:55:23;9.90;99.90
15481;DHT22;7842;50.904;6.670;2023-04-15T22:57:49;8.20;99.90
15481;DHT22;7842;50.904;6.670;2023-04-15T23:00:14;8.20;99.90
15481;DHT22;7842;50.904;6.670;2023-04-15T23:02:40;8.30;99.90
15481;DHT22;7842;50.904;6.670;2023-04-15T23:05:06;8.50;99.90
15481;DHT22;7842;50.904;6.670;2023-04-15T23:07:32;8.20;99.90
15481;DHT22;7842;50.904;6.670;2023-04-15T23:09:57;8.20;99.90
15481;DHT22;7842;50.904;6.670;2023-04-15T23:12:25;8.20;99.90
15481;DHT22;7842;50.904;6.670;2023-04-15T23:14:51;10.20;99.90
15481;DHT22;7842;50.904;6.670;2023-04-15T23:17:16;8.20;99.90
15481;DHT22;7842;50.904;6.670;2023-04-15T23:19:42;8.20;99.90
15481;DHT22;7842;50.904;6.670;2023-04-15T23:22:07;9.50;99.90
15481;DHT22;7842;50.904;6.670;2023-04-15T23:24:36;9.60;99.90
15481;DHT22;7842;50.904;6.670;2023-04-15T23:27:05;8.20;99.90
15481;DHT22;7842;50.904;6.670;2023-04-15T23:29:30;8.20;99.90
15481;DHT22;7842;50.904;6.670;2023-04-15T23:31:56;8.20;99.90
15481;DHT22;7842;50.904;6.670;2023-04-15T23:34:22;9.60;99.90
15481;DHT22;7842;50.904;6.670;2023-04-15T23:36:47;8.20;99.90
15481;DHT22;7842;50.904;6.670;2023-04-15T23:39:13;8.20;99.90
15481;DHT22;7842;50.904;6.670;2023-04-15T23:41:38;8.50;99.90
15481;DHT22;7842;50.904;6.670;2023-04-15T23:44:04;8.20;99.90
15481;DHT22;7842;50.904;6.670;2023-04-15T23:46:33;8.20;99.90
15481;DHT22;7842;50.904;6.670;2023-04-15T23:48:58;8.20;99.90
15481;DHT22;7842;50.904;6.670;2023-04-15T23:51:24;8.20;99.90
15481;DHT22;7842;50.904;6.670;2023-04-15T23:53:50;8.20;99.90
15481;DHT22;7842;50.904;6.670;2023-04-15T23:56:16;8.20;99.90
15481;DHT22;7842;50.904;6.670;2023-04-15T23:58:42;8.20;99.90
